createdAt,value
2023-04-21T00:02:58.261Z,2.33
2023-04-21T00:06:01.952Z,2.70
2023-04-21T00:09:05.738Z,3.08
2023-04-21T00:12:08.574Z,2.67
2023-04-21T00:15:11.539Z,3.03
2023-04-21T00:18:14.244Z,2.40
2023-04-21T00:21:17.997Z,2.67
2023-04-21T00:24:21.052Z,1.92
2023-04-21T00:27:23.790Z,2.55
2023-04-21T00:30:26.939Z,2.55
2023-04-21T00:33:30.190Z,2.70
2023-04-21T00:36:32.924Z,2.70
2023-04-21T00:39:35.889Z,3.15
2023-04-21T00:42:38.566Z,2.95
2023-04-21T00:45:41.560Z,2.67
2023-04-21T00:48:44.419Z,2.80
2023-04-21T00:51:47.508Z,2.50
2023-04-21T00:54:51.779Z,2.15
2023-04-21T00:57:56.171Z,2.35
2023-04-21T01:01:05.881Z,2.08
2023-04-21T01:04:19.889Z,2.28
2023-04-21T01:07:23.601Z,3.08
2023-04-21T01:10:26.705Z,2.85
2023-04-21T01:13:29.632Z,2.28
2023-04-21T01:16:33.990Z,2.28
2023-04-21T01:19:40.770Z,3.10
2023-04-21T01:22:45.197Z,2.85
2023-04-21T01:25:47.893Z,2.20
2023-04-21T01:28:50.777Z,2.63
2023-04-21T01:31:53.524Z,2.22
2023-04-21T01:34:57.325Z,2.20
2023-04-21T01:38:00.005Z,2.40
2023-04-21T01:41:04.060Z,2.30
2023-04-21T01:44:06.818Z,2.70
2023-04-21T01:47:09.462Z,2.25
2023-04-21T01:50:12.201Z,2.35
2023-04-21T01:53:17.181Z,2.78
2023-04-21T01:56:19.902Z,2.00
2023-04-21T01:59:22.581Z,2.67
2023-04-21T02:02:25.580Z,3.65
2023-04-21T02:05:28.391Z,3.90
2023-04-21T02:08:31.958Z,4.00
2023-04-21T02:11:37.999Z,4.28
2023-04-21T02:14:41.000Z,3.85
2023-04-21T02:17:45.356Z,3.78
2023-04-21T02:20:48.106Z,3.95
2023-04-21T02:23:51.654Z,3.67
2023-04-21T02:26:54.389Z,3.90
2023-04-21T02:29:56.985Z,3.92
2023-04-21T02:32:59.887Z,3.92
2023-04-21T02:36:02.777Z,3.63
2023-04-21T02:39:05.682Z,3.80
2023-04-21T02:42:08.396Z,3.35
2023-04-21T02:45:12.280Z,4.68
2023-04-21T02:48:15.232Z,3.75
2023-04-21T02:51:18.036Z,4.00
2023-04-21T02:54:20.811Z,4.40
2023-04-21T02:57:24.060Z,4.70
2023-04-21T03:00:27.169Z,3.83
2023-04-21T03:03:30.719Z,3.70
2023-04-21T03:06:34.329Z,4.18
2023-04-21T03:09:36.988Z,4.28
2023-04-21T03:12:39.862Z,4.00
2023-04-21T03:15:42.576Z,4.43
2023-04-21T03:18:46.714Z,4.95
2023-04-21T03:21:49.372Z,4.70
2023-04-21T03:24:52.169Z,4.47
2023-04-21T03:27:55.390Z,4.15
2023-04-21T03:30:58.015Z,4.07
2023-04-21T03:34:02.198Z,4.45
2023-04-21T03:37:05.635Z,4.65
2023-04-21T03:40:11.818Z,2.63
2023-04-21T03:43:14.663Z,3.58
2023-04-21T03:46:23.395Z,3.78
2023-04-21T03:49:26.188Z,3.78
2023-04-21T03:52:28.938Z,3.95
2023-04-21T03:55:31.757Z,4.57
2023-04-21T03:58:34.886Z,3.90
2023-04-21T04:01:37.827Z,3.55
2023-04-21T04:04:41.014Z,3.90
2023-04-21T04:07:43.861Z,4.28
2023-04-21T04:10:46.703Z,4.07
2023-04-21T04:13:49.374Z,4.00
2023-04-21T04:16:52.110Z,4.60
2023-04-21T04:19:55.043Z,4.50
2023-04-21T04:22:58.019Z,3.92
2023-04-21T04:26:02.101Z,3.22
2023-04-21T04:29:06.508Z,3.13
2023-04-21T04:32:11.429Z,3.35
2023-04-21T04:35:14.861Z,3.50
2023-04-21T04:38:17.601Z,3.97
2023-04-21T04:41:21.295Z,3.92
2023-04-21T04:44:26.180Z,4.57
2023-04-21T04:47:29.495Z,4.68
2023-04-21T04:50:32.226Z,4.22
2023-04-21T04:53:34.996Z,4.32
2023-04-21T04:56:38.192Z,5.00
2023-04-21T04:59:41.016Z,4.88
2023-04-21T05:02:43.858Z,5.40
2023-04-21T05:05:46.919Z,4.47
2023-04-21T05:08:49.921Z,4.65
2023-04-21T05:11:52.773Z,4.40
2023-04-21T05:14:55.529Z,4.95
2023-04-21T05:17:58.566Z,4.35
2023-04-21T05:21:01.668Z,4.78
2023-04-21T05:24:04.585Z,3.50
2023-04-21T05:27:07.801Z,3.60
2023-04-21T05:30:11.139Z,3.65
2023-04-21T05:33:13.928Z,3.25
2023-04-21T05:36:16.824Z,3.45
2023-04-21T05:39:19.678Z,3.35
2023-04-21T05:42:24.340Z,2.55
2023-04-21T05:45:27.100Z,3.38
2023-04-21T05:48:30.050Z,3.90
2023-04-21T05:51:33.035Z,3.58
2023-04-21T05:54:35.720Z,3.25
2023-04-21T05:57:38.470Z,3.20
2023-04-21T06:00:41.330Z,3.35
2023-04-21T06:03:44.397Z,4.25
2023-04-21T06:06:47.176Z,3.50
2023-04-21T06:09:52.963Z,3.00
2023-04-21T06:12:55.789Z,2.60
2023-04-21T06:15:58.616Z,3.42
2023-04-21T06:19:01.754Z,2.90
2023-04-21T06:22:04.663Z,1.88
2023-04-21T06:25:07.739Z,3.15
2023-04-21T06:28:10.742Z,3.22
2023-04-21T06:31:16.034Z,3.17
2023-04-21T06:34:20.595Z,2.75
2023-04-21T06:37:23.835Z,2.85
2023-04-21T06:40:26.939Z,2.92
2023-04-21T06:43:29.663Z,3.10
2023-04-21T06:46:32.633Z,2.58
2023-04-21T06:49:37.566Z,2.38
2023-04-21T06:52:40.642Z,2.13
2023-04-21T06:55:43.380Z,2.65
2023-04-21T06:58:47.412Z,2.60
2023-04-21T07:01:52.615Z,2.45
2023-04-21T07:04:55.740Z,1.90
2023-04-21T07:08:00.308Z,2.38
2023-04-21T07:11:03.503Z,2.08
2023-04-21T07:14:06.963Z,2.28
2023-04-21T07:17:09.710Z,2.33
2023-04-21T07:20:12.763Z,2.83
2023-04-21T07:23:15.760Z,2.50
2023-04-21T07:26:18.817Z,2.38
2023-04-21T07:29:21.778Z,2.78
2023-04-21T07:32:25.936Z,1.98
2023-04-21T07:35:28.719Z,2.20
2023-04-21T07:38:31.720Z,2.45
2023-04-21T07:41:34.606Z,2.35
2023-04-21T07:44:37.880Z,2.35
2023-04-21T07:47:40.664Z,2.67
2023-04-21T07:50:43.560Z,2.70
2023-04-21T07:53:46.625Z,2.60
2023-04-21T07:56:49.469Z,2.42
2023-04-21T07:59:52.437Z,2.60
2023-04-21T08:02:55.256Z,3.42
2023-04-21T08:05:58.490Z,3.17
2023-04-21T08:09:01.715Z,2.10
2023-04-21T08:12:04.895Z,2.75
2023-04-21T08:15:08.864Z,2.53
2023-04-21T08:18:11.883Z,2.55
2023-04-21T08:21:15.353Z,3.25
2023-04-21T08:24:18.940Z,3.10
2023-04-21T08:27:24.864Z,3.38
2023-04-21T08:30:28.803Z,2.80
2023-04-21T08:33:31.589Z,2.92
2023-04-21T08:36:34.789Z,3.17
2023-04-21T08:39:37.618Z,2.60
2023-04-21T08:42:40.608Z,3.42
2023-04-21T08:45:44.420Z,2.75
2023-04-21T08:48:48.073Z,3.25
2023-04-21T08:51:51.225Z,2.65
2023-04-21T08:54:55.938Z,2.88
2023-04-21T08:57:58.694Z,3.10
2023-04-21T09:01:01.607Z,2.90
2023-04-21T09:04:18.036Z,2.85
2023-04-21T09:07:47.318Z,2.85
2023-04-21T09:10:52.452Z,3.20
2023-04-21T09:13:58.555Z,2.65
2023-04-21T09:17:04.886Z,3.38
2023-04-21T09:20:14.905Z,3.08
2023-04-21T09:23:18.096Z,3.15
2023-04-21T09:26:25.027Z,2.97
2023-04-21T09:29:28.441Z,3.33
2023-04-21T09:32:40.908Z,2.73
2023-04-21T09:35:43.933Z,2.50
2023-04-21T09:42:11.532Z,3.30
2023-04-21T09:45:36.695Z,3.05
2023-04-21T09:48:44.899Z,3.00
2023-04-21T09:54:58.312Z,3.13
2023-04-21T09:58:01.826Z,2.45
2023-04-21T10:01:05.045Z,2.58
2023-04-21T10:04:08.179Z,2.50
2023-04-21T10:07:12.119Z,2.47
2023-04-21T10:10:24.588Z,3.13
2023-04-21T10:13:27.704Z,2.78
2023-04-21T10:16:30.627Z,2.53
2023-04-21T10:19:44.163Z,2.90
2023-04-21T10:22:57.911Z,2.90
2023-04-21T10:26:24.825Z,3.05
2023-04-21T10:29:44.157Z,2.35
2023-04-21T10:33:03.704Z,2.83
2023-04-21T10:36:07.772Z,3.53
2023-04-21T10:39:13.294Z,2.80
2023-04-21T10:42:15.970Z,3.45
2023-04-21T10:45:18.984Z,2.72
2023-04-21T10:48:23.015Z,2.60
2023-04-21T10:51:25.734Z,2.65
2023-04-21T10:54:53.127Z,2.92
2023-04-21T10:57:56.292Z,3.10
2023-04-21T11:00:59.470Z,2.78
2023-04-21T11:04:02.581Z,2.90
2023-04-21T11:07:05.971Z,3.22
2023-04-21T11:10:12.024Z,2.78
2023-04-21T11:13:17.498Z,2.90
2023-04-21T11:16:21.036Z,2.63
2023-04-21T11:19:25.533Z,2.72
2023-04-21T11:22:28.557Z,2.60
2023-04-21T11:25:31.604Z,2.30
2023-04-21T11:28:34.358Z,1.63
2023-04-21T11:31:38.698Z,2.63
2023-04-21T11:34:42.097Z,2.40
2023-04-21T11:37:44.897Z,2.20
2023-04-21T11:40:51.544Z,2.15
2023-04-21T11:46:57.033Z,1.90
2023-04-21T11:50:02.046Z,2.03
2023-04-21T11:53:04.789Z,2.50
2023-04-21T11:56:07.769Z,2.33
2023-04-21T11:59:16.001Z,2.50
2023-04-21T12:02:27.007Z,2.30
2023-04-21T12:05:36.866Z,2.33
2023-04-21T12:08:41.275Z,2.30
2023-04-21T12:11:48.401Z,2.40
2023-04-21T12:14:52.665Z,1.73
2023-04-21T12:17:57.358Z,1.70
2023-04-21T12:21:02.172Z,2.40
2023-04-21T12:24:05.593Z,2.38
2023-04-21T12:27:14.284Z,2.47
2023-04-21T12:30:17.597Z,2.58
2023-04-21T12:33:20.483Z,2.10
2023-04-21T12:36:23.631Z,2.60
2023-04-21T12:39:26.554Z,2.92
2023-04-21T12:42:29.272Z,2.72
2023-04-21T12:45:33.098Z,1.92
2023-04-21T12:48:36.040Z,2.17
2023-04-21T12:51:38.743Z,2.45
2023-04-21T12:54:42.235Z,3.03
2023-04-21T12:57:45.304Z,2.10
2023-04-21T13:00:48.047Z,2.05
2023-04-21T13:03:50.998Z,1.80
2023-04-21T13:06:53.901Z,2.17
2023-04-21T13:09:56.908Z,1.98
2023-04-21T13:13:00.127Z,2.45
2023-04-21T13:16:03.067Z,2.85
2023-04-21T13:19:05.942Z,2.30
2023-04-21T13:22:08.824Z,2.65
2023-04-21T13:25:12.049Z,2.45
2023-04-21T13:28:15.057Z,2.35
2023-04-21T13:31:17.884Z,2.70
2023-04-21T13:34:20.649Z,2.53
2023-04-21T13:37:23.609Z,2.58
2023-04-21T13:40:26.553Z,2.40
2023-04-21T13:43:29.417Z,2.10
2023-04-21T13:46:32.384Z,2.47
2023-04-21T13:49:35.823Z,2.60
2023-04-21T13:52:38.663Z,2.63
2023-04-21T13:55:42.229Z,3.00
2023-04-21T13:58:45.273Z,3.00
2023-04-21T14:01:48.581Z,3.13
2023-04-21T14:04:53.016Z,2.97
2023-04-21T14:07:56.226Z,3.17
2023-04-21T14:10:59.219Z,3.17
2023-04-21T14:14:09.688Z,2.95
2023-04-21T14:17:13.149Z,2.83
2023-04-21T14:20:15.925Z,2.88
2023-04-21T14:23:18.874Z,3.15
2023-04-21T14:26:21.843Z,2.42
2023-04-21T14:29:24.636Z,2.60
2023-04-21T14:32:28.000Z,2.88
2023-04-21T14:35:30.872Z,2.95
2023-04-21T14:38:34.233Z,3.67
2023-04-21T14:41:36.956Z,3.10
2023-04-21T14:44:39.819Z,2.97
2023-04-21T14:47:43.205Z,2.90
2023-04-21T14:50:46.017Z,3.10
2023-04-21T14:53:51.702Z,3.10
2023-04-21T14:57:10.373Z,3.20
2023-04-21T15:00:20.077Z,3.20
2023-04-21T15:03:23.077Z,3.08
2023-04-21T15:06:28.520Z,2.92
2023-04-21T15:09:34.202Z,2.88
2023-04-21T15:12:37.763Z,2.58
2023-04-21T15:15:41.467Z,2.25
2023-04-21T15:18:44.162Z,2.92
2023-04-21T15:21:49.217Z,2.63
2023-04-21T15:24:54.374Z,2.92
2023-04-21T15:27:57.430Z,2.55
2023-04-21T15:31:00.283Z,2.85
2023-04-21T15:34:05.594Z,2.58
2023-04-21T15:37:08.438Z,2.88
2023-04-21T15:40:11.396Z,2.80
2023-04-21T15:43:14.204Z,2.80
2023-04-21T15:46:16.976Z,2.53
2023-04-21T15:49:20.028Z,2.78
2023-04-21T15:52:22.787Z,2.50
2023-04-21T15:55:28.041Z,2.08
2023-04-21T15:58:31.222Z,2.83
2023-04-21T16:01:34.558Z,2.78
2023-04-21T16:04:40.841Z,2.90
2023-04-21T16:07:44.499Z,2.80
2023-04-21T16:10:47.349Z,2.63
2023-04-21T16:13:50.158Z,2.78
2023-04-21T16:16:53.114Z,3.05
2023-04-21T16:19:56.070Z,3.30
2023-04-21T16:22:59.557Z,3.00
2023-04-21T16:26:02.728Z,2.60
2023-04-21T16:29:05.774Z,1.98
2023-04-21T16:32:08.729Z,3.00
2023-04-21T16:35:11.879Z,2.67
2023-04-21T16:38:15.141Z,2.75
2023-04-21T16:41:20.835Z,2.72
2023-04-21T16:44:24.045Z,2.73
2023-04-21T16:47:27.211Z,3.92
2023-04-21T16:50:30.268Z,3.10
2023-04-21T16:53:38.811Z,3.28
2023-04-21T16:56:45.396Z,3.05
2023-04-21T16:59:48.437Z,3.75
2023-04-21T17:02:51.460Z,3.58
2023-04-21T17:05:54.851Z,3.25
2023-04-21T17:09:00.130Z,4.05
2023-04-21T17:12:04.018Z,3.42
2023-04-21T17:15:07.875Z,4.00
2023-04-21T17:18:11.098Z,3.85
2023-04-21T17:21:14.077Z,4.35
2023-04-21T17:24:17.241Z,4.28
2023-04-21T17:27:20.240Z,6.18
2023-04-21T17:30:23.823Z,5.68
2023-04-21T17:33:26.604Z,5.57
2023-04-21T17:36:29.819Z,6.05
2023-04-21T17:39:33.311Z,5.32
2023-04-21T17:42:36.446Z,4.50
2023-04-21T17:45:39.460Z,4.50
2023-04-21T17:48:42.654Z,5.15
2023-04-21T17:51:45.475Z,5.20
2023-04-21T17:54:48.345Z,5.15
2023-04-21T17:57:51.071Z,4.95
2023-04-21T18:00:54.110Z,5.30
2023-04-21T18:04:00.599Z,5.82
2023-04-21T18:07:03.926Z,5.35
2023-04-21T18:10:08.065Z,4.88
2023-04-21T18:13:10.897Z,5.50
2023-04-21T18:16:14.412Z,5.35
2023-04-21T18:19:18.790Z,4.90
2023-04-21T18:22:24.078Z,4.80
2023-04-21T18:25:40.802Z,3.95
2023-04-21T18:28:44.832Z,8.35
2023-04-21T18:31:47.856Z,4.82
2023-04-21T18:34:50.800Z,4.93
2023-04-21T18:37:53.784Z,4.53
2023-04-21T18:40:56.787Z,4.30
2023-04-21T18:43:59.465Z,4.05
2023-04-21T18:47:02.353Z,3.97
2023-04-21T18:50:05.715Z,4.28
2023-04-21T18:53:09.307Z,6.28
2023-04-21T18:56:12.415Z,4.53
2023-04-21T18:59:15.103Z,4.72
2023-04-21T19:02:18.150Z,4.38
2023-04-21T19:05:20.918Z,4.55
2023-04-21T19:08:34.187Z,3.42
2023-04-21T19:11:44.069Z,3.97
2023-04-21T19:14:47.813Z,3.55
2023-04-21T19:17:51.046Z,3.80
2023-04-21T19:20:53.756Z,3.85
2023-04-21T19:23:58.088Z,3.85
2023-04-21T19:27:05.844Z,3.53
2023-04-21T19:30:09.486Z,3.72
2023-04-21T19:33:12.583Z,4.13
2023-04-21T19:36:15.464Z,3.63
2023-04-21T19:39:20.323Z,4.38
2023-04-21T19:42:25.704Z,4.68
2023-04-21T19:45:28.663Z,5.60
2023-04-21T19:48:31.750Z,4.07
2023-04-21T19:51:34.741Z,3.97
2023-04-21T19:54:37.869Z,4.53
2023-04-21T19:57:40.867Z,3.65
2023-04-21T20:00:44.008Z,4.78
2023-04-21T20:03:48.113Z,11.20
2023-04-21T20:06:51.209Z,4.18
2023-04-21T20:09:54.186Z,3.92
2023-04-21T20:12:57.126Z,4.28
2023-04-21T20:16:00.146Z,4.47
2023-04-21T20:19:04.817Z,4.03
2023-04-21T20:22:08.462Z,3.85
2023-04-21T20:25:11.200Z,3.58
2023-04-21T20:28:14.207Z,3.53
2023-04-21T20:31:19.298Z,3.90
2023-04-21T20:34:22.343Z,3.67
2023-04-21T20:37:25.508Z,3.63
2023-04-21T20:40:28.348Z,3.60
2023-04-21T20:43:34.599Z,3.33
2023-04-21T20:46:37.605Z,3.25
2023-04-21T20:49:40.770Z,3.40
2023-04-21T20:52:43.776Z,3.95
2023-04-21T20:55:47.454Z,4.53
2023-04-21T20:58:50.456Z,3.60
2023-04-21T21:01:53.483Z,3.45
2023-04-21T21:04:56.851Z,3.63
2023-04-21T21:07:59.827Z,3.97
2023-04-21T21:11:02.649Z,4.00
2023-04-21T21:14:05.541Z,3.88
2023-04-21T21:17:08.720Z,3.75
2023-04-21T21:20:11.932Z,3.20
2023-04-21T21:23:14.660Z,3.55
2023-04-21T21:26:17.526Z,3.58
2023-04-21T21:29:20.765Z,3.78
2023-04-21T21:32:23.722Z,3.17
2023-04-21T21:35:26.610Z,3.95
2023-04-21T21:38:29.478Z,4.07
2023-04-21T21:41:32.476Z,4.47
2023-04-21T21:44:36.723Z,3.05
2023-04-21T21:47:42.945Z,3.70
2023-04-21T21:50:47.743Z,3.78
2023-04-21T21:53:50.451Z,3.80
2023-04-21T21:56:53.504Z,4.35
2023-04-21T21:59:56.478Z,3.45
2023-04-21T22:02:59.475Z,3.65
2023-04-21T22:06:02.299Z,4.07
2023-04-21T22:09:05.501Z,3.65
2023-04-21T22:12:08.412Z,4.15
2023-04-21T22:15:11.674Z,3.65
2023-04-21T22:18:14.466Z,3.70
2023-04-21T22:21:17.204Z,3.90
2023-04-21T22:24:19.921Z,3.33
2023-04-21T22:27:22.608Z,3.10
2023-04-21T22:30:26.269Z,3.22
2023-04-21T22:33:29.042Z,3.97
2023-04-21T22:36:32.999Z,3.42
2023-04-21T22:39:37.681Z,3.17
2023-04-21T22:42:40.780Z,2.30
2023-04-21T22:45:43.512Z,2.97
2023-04-21T22:48:46.803Z,3.30
2023-04-21T22:51:50.677Z,3.65
2023-04-21T22:54:53.822Z,3.65
2023-04-21T22:57:56.677Z,2.97
2023-04-21T23:00:59.536Z,3.15
2023-04-21T23:04:02.361Z,3.08
2023-04-21T23:07:05.705Z,2.72
2023-04-21T23:10:08.531Z,3.45
2023-04-21T23:13:11.438Z,3.00
2023-04-21T23:16:14.183Z,3.30
2023-04-21T23:19:16.995Z,3.30
2023-04-21T23:22:19.698Z,2.83
2023-04-21T23:25:22.365Z,3.13
2023-04-21T23:28:25.429Z,2.92
2023-04-21T23:31:28.266Z,3.53
2023-04-21T23:34:30.968Z,3.80
2023-04-21T23:37:33.809Z,3.28
2023-04-21T23:40:39.126Z,2.78
2023-04-21T23:43:41.858Z,2.85
2023-04-21T23:46:44.591Z,2.75
2023-04-21T23:49:47.300Z,3.15
2023-04-21T23:52:50.116Z,3.28
2023-04-21T23:55:53.182Z,3.03
2023-04-21T23:58:55.966Z,3.03
